Terminal Aerodrome Forecast
Issued by NWS

Home | Current Version | Previous Version | Text Only | Print | Product List | Glossary On
Versions: 1 2 3 4 5 6 7 8 9 10 11 12 13 14 15 16 17 18 19 20 21 22 23 24 25 26 27 28 29 30 31 32 33 34
000
FTAK31 PANC 230535
TAFAEN
TAF
PAEN 230535Z 2306/2406 25008KT P6SM FEW090
     FM230900 VRB03KT P6SM BKN250
     FM232100 21007KT P6SM VCSH FEW025 BKN050
     FM232300 26003KT P6SM -RA BKN020 OVC030=

USA.gov is the U.S. government's official web portal to all federal, state and local government web resources and services.